Ina Theresa — V7UJ2 — position and weather

sailwx.info

Track history (hours):
 
Tides and Currents Weather Stations Pressure Air Temp Water Temp Dewpoint Dewpoint Depression Visibility Wind Speed Wind Dir Waves Ship Positions

Ina Theresa

Last reported at 2015-Jan-15 00:33 UTC. Time now 2015-Jan-27 14:31 UTC.
Position S 23°03' W 041°23'.
Warning: this ship's position is 12 days out of date.

Length 122 m; draft 8.5 m.

Type: Tanker. MMSI: 538004548.

Date/timePositionNaut miles runAvg speedWind from/ knotsBaromVisibWave heightAir tempDewpointWater temp
2015-Jan-15 00:33S 23°03' W 041°23'1110.2
2015-Jan-14 23:31S 23°11' W 041°31'1010.3
2015-Jan-14 22:33S 23°19' W 041°38'1210.7
2015-Jan-14 21:26S 23°28' W 041°47'910.2
2015-Jan-14 20:34S 23°34' W 041°53'10 9.8
2015-Jan-14 19:34S 23°42' W 042°00'10 9.5
2015-Jan-14 18:33S 23°49' W 042°07'12 9.2
2015-Jan-14 17:16S 23°58' W 042°15'9 8.9
2015-Jan-14 16:18S 24°05' W 042°21'  
2015-Jan-11 06:14S 34°58' W 053°57'811.2
2015-Jan-11 05:33S 35°00' W 054°06'1111.3
2015-Jan-11 04:33S 35°04' W 054°19'1111.2
2015-Jan-11 03:33S 35°08' W 054°32'1110.9
2015-Jan-11 02:33S 35°12' W 054°45'1010.3
2015-Jan-11 01:33S 35°12' W 054°57'1111.1
2015-Jan-11 00:33S 35°09' W 055°10'1111.3
2015-Jan-10 23:33S 35°07' W 055°24'1111.3
2015-Jan-10 22:33S 35°05' W 055°37'1111.3
2015-Jan-10 21:33S 35°05' W 055°51'1010.0
2015-Jan-10 20:33S 35°05' W 056°03'1211.6
2015-Jan-10 19:33S 35°10' W 056°16'1311.6
2015-Jan-10 18:26S 35°10' W 056°32'1111.1
2015-Jan-10 17:29S 35°10' W 056°45'1311.4
2015-Jan-10 16:19S 35°09' W 057°01'3211.5
2015-Jan-10 13:32S 34°47' W 057°30'1212.0
2015-Jan-10 12:33S 34°44' W 057°44'8 8.2
2015-Jan-10 11:33S 34°43' W 057°54'1110.9
2015-Jan-10 10:33S 34°39' W 058°06'1010.3
2015-Jan-10 09:33S 34°34' W 058°17'  
2015-Jan-07 08:06S 34°13' W 058°07'610.8
2015-Jan-07 07:33S 34°17' W 058°02'1111.3
2015-Jan-07 06:33S 34°28' W 057°57'1211.7
2015-Jan-07 05:33S 34°39' W 057°58'1010.5
2015-Jan-07 04:34S 34°46' W 057°48'9 9.2
2015-Jan-07 03:33S 34°45' W 057°37'1311.4
2015-Jan-07 02:27S 34°51' W 057°23'  
Track history (hours):
 
Tides and Currents Weather Stations Pressure Air Temp Water Temp Dewpoint Dewpoint Depression Visibility Wind Speed Wind Dir Waves Ship Positions

Ina Theresa

Last reported at 2015-Jan-15 00:33 UTC. Time now 2015-Jan-27 14:31 UTC.
Position S 23°03' W 041°23'.
Warning: this ship's position is 12 days out of date.

Length 122 m; draft 8.5 m.

Type: Tanker. MMSI: 538004548.

Date/timePositionNaut miles runAvg speedWind from/ knotsBaromVisibWave heightAir tempDewpointWater temp
2015-Jan-15 00:33S 23°03' W 041°23'1110.2
2015-Jan-14 23:31S 23°11' W 041°31'1010.3
2015-Jan-14 22:33S 23°19' W 041°38'1210.7
2015-Jan-14 21:26S 23°28' W 041°47'910.2
2015-Jan-14 20:34S 23°34' W 041°53'10 9.8
2015-Jan-14 19:34S 23°42' W 042°00'10 9.5
2015-Jan-14 18:33S 23°49' W 042°07'12 9.2
2015-Jan-14 17:16S 23°58' W 042°15'9 8.9
2015-Jan-14 16:18S 24°05' W 042°21'  
2015-Jan-11 06:14S 34°58' W 053°57'811.2
2015-Jan-11 05:33S 35°00' W 054°06'1111.3
2015-Jan-11 04:33S 35°04' W 054°19'1111.2
2015-Jan-11 03:33S 35°08' W 054°32'1110.9
2015-Jan-11 02:33S 35°12' W 054°45'1010.3
2015-Jan-11 01:33S 35°12' W 054°57'1111.1
2015-Jan-11 00:33S 35°09' W 055°10'1111.3
2015-Jan-10 23:33S 35°07' W 055°24'1111.3
2015-Jan-10 22:33S 35°05' W 055°37'1111.3
2015-Jan-10 21:33S 35°05' W 055°51'1010.0
2015-Jan-10 20:33S 35°05' W 056°03'1211.6
2015-Jan-10 19:33S 35°10' W 056°16'1311.6
2015-Jan-10 18:26S 35°10' W 056°32'1111.1
2015-Jan-10 17:29S 35°10' W 056°45'1311.4
2015-Jan-10 16:19S 35°09' W 057°01'3211.5
2015-Jan-10 13:32S 34°47' W 057°30'1212.0
2015-Jan-10 12:33S 34°44' W 057°44'8 8.2
2015-Jan-10 11:33S 34°43' W 057°54'1110.9
2015-Jan-10 10:33S 34°39' W 058°06'1010.3
2015-Jan-10 09:33S 34°34' W 058°17'  
2015-Jan-07 08:06S 34°13' W 058°07'610.8
2015-Jan-07 07:33S 34°17' W 058°02'1111.3
2015-Jan-07 06:33S 34°28' W 057°57'1211.7
2015-Jan-07 05:33S 34°39' W 057°58'1010.5
2015-Jan-07 04:34S 34°46' W 057°48'9 9.2
2015-Jan-07 03:33S 34°45' W 057°37'1311.4
2015-Jan-07 02:27S 34°51' W 057°23'  

Dump ship's entire track history